sensor_id;sensor_type;location;lat;lon;timestamp;P1;durP1;ratioP1;P2;durP2;ratioP2
43877;SDS011;29815;48.184;11.268;2023-09-12T00:01:45;12.45;;;10.30;;
43877;SDS011;29815;48.184;11.268;2023-09-12T00:04:15;13.18;;;10.82;;
43877;SDS011;29815;48.184;11.268;2023-09-12T00:06:45;12.68;;;10.35;;
43877;SDS011;29815;48.184;11.268;2023-09-12T00:09:14;12.20;;;10.27;;
43877;SDS011;29815;48.184;11.268;2023-09-12T00:11:45;13.38;;;12.18;;
43877;SDS011;29815;48.184;11.268;2023-09-12T00:14:15;13.93;;;10.88;;
43877;SDS011;29815;48.184;11.268;2023-09-12T00:16:45;12.82;;;10.85;;
43877;SDS011;29815;48.184;11.268;2023-09-12T00:19:15;12.55;;;11.25;;
43877;SDS011;29815;48.184;11.268;2023-09-12T00:21:44;11.68;;;10.25;;
43877;SDS011;29815;48.184;11.268;2023-09-12T00:24:14;14.10;;;11.25;;
43877;SDS011;29815;48.184;11.268;2023-09-12T00:26:46;13.15;;;11.73;;
43877;SDS011;29815;48.184;11.268;2023-09-12T00:29:15;14.20;;;11.82;;
43877;SDS011;29815;48.184;11.268;2023-09-12T00:31:46;13.57;;;12.18;;
43877;SDS011;29815;48.184;11.268;2023-09-12T00:34:16;13.60;;;12.10;;
43877;SDS011;29815;48.184;11.268;2023-09-12T00:36:46;13.18;;;11.85;;
43877;SDS011;29815;48.184;11.268;2023-09-12T00:39:15;11.60;;;10.48;;
43877;SDS011;29815;48.184;11.268;2023-09-12T00:41:46;12.18;;;10.55;;
43877;SDS011;29815;48.184;11.268;2023-09-12T00:44:16;12.63;;;11.13;;
43877;SDS011;29815;48.184;11.268;2023-09-12T00:46:45;12.40;;;11.20;;
43877;SDS011;29815;48.184;11.268;2023-09-12T00:49:16;14.15;;;12.15;;
43877;SDS011;29815;48.184;11.268;2023-09-12T00:51:50;12.70;;;11.18;;
43877;SDS011;29815;48.184;11.268;2023-09-12T00:54:20;15.13;;;13.48;;
43877;SDS011;29815;48.184;11.268;2023-09-12T00:56:51;13.13;;;11.82;;
43877;SDS011;29815;48.184;11.268;2023-09-12T00:59:22;13.40;;;12.00;;
43877;SDS011;29815;48.184;11.268;2023-09-12T01:01:52;12.38;;;11.10;;
43877;SDS011;29815;48.184;11.268;2023-09-12T01:04:24;14.75;;;10.88;;
43877;SDS011;29815;48.184;11.268;2023-09-12T01:07:02;13.38;;;12.07;;
43877;SDS011;29815;48.184;11.268;2023-09-12T01:09:33;12.85;;;11.52;;
43877;SDS011;29815;48.184;11.268;2023-09-12T01:12:06;12.95;;;11.48;;
43877;SDS011;29815;48.184;11.268;2023-09-12T01:14:42;11.70;;;10.50;;
43877;SDS011;29815;48.184;11.268;2023-09-12T01:17:12;12.05;;;10.95;;
43877;SDS011;29815;48.184;11.268;2023-09-12T01:19:42;12.68;;;11.38;;
43877;SDS011;29815;48.184;11.268;2023-09-12T01:28:58;12.85;;;10.13;;
43877;SDS011;29815;48.184;11.268;2023-09-12T01:31:29;11.70;;;10.35;;
43877;SDS011;29815;48.184;11.268;2023-09-12T01:34:07;13.13;;;10.43;;
43877;SDS011;29815;48.184;11.268;2023-09-12T01:36:38;12.95;;;11.57;;
43877;SDS011;29815;48.184;11.268;2023-09-12T01:39:08;13.77;;;12.27;;
43877;SDS011;29815;48.184;11.268;2023-09-12T01:41:40;20.10;;;12.93;;
43877;SDS011;29815;48.184;11.268;2023-09-12T01:44:14;13.40;;;12.00;;
43877;SDS011;29815;48.184;11.268;2023-09-12T01:46:44;12.38;;;11.07;;
43877;SDS011;29815;48.184;11.268;2023-09-12T01:49:21;13.07;;;11.68;;
43877;SDS011;29815;48.184;11.268;2023-09-12T01:51:53;12.52;;;11.02;;
43877;SDS011;29815;48.184;11.268;2023-09-12T01:54:23;13.18;;;11.15;;
43877;SDS011;29815;48.184;11.268;2023-09-12T01:56:55;12.90;;;11.23;;
43877;SDS011;29815;48.184;11.268;2023-09-12T01:59:29;16.98;;;12.10;;
43877;SDS011;29815;48.184;11.268;2023-09-12T02:01:59;13.20;;;11.80;;
43877;SDS011;29815;48.184;11.268;2023-09-12T02:04:29;13.85;;;12.50;;
43877;SDS011;29815;48.184;11.268;2023-09-12T02:06:59;13.90;;;11.75;;
43877;SDS011;29815;48.184;11.268;2023-09-12T02:09:29;12.63;;;11.23;;
43877;SDS011;29815;48.184;11.268;2023-09-12T02:11:59;12.07;;;10.88;;
43877;SDS011;29815;48.184;11.268;2023-09-12T02:14:31;14.27;;;10.90;;
43877;SDS011;29815;48.184;11.268;2023-09-12T02:17:01;12.40;;;11.10;;
43877;SDS011;29815;48.184;11.268;2023-09-12T02:19:31;13.90;;;12.35;;
43877;SDS011;29815;48.184;11.268;2023-09-12T02:22:00;14.80;;;12.15;;
43877;SDS011;29815;48.184;11.268;2023-09-12T02:24:30;11.88;;;10.77;;
43877;SDS011;29815;48.184;11.268;2023-09-12T02:29:35;13.52;;;10.75;;
43877;SDS011;29815;48.184;11.268;2023-09-12T02:34:36;12.60;;;11.35;;
43877;SDS011;29815;48.184;11.268;2023-09-12T02:37:07;12.35;;;10.60;;
43877;SDS011;29815;48.184;11.268;2023-09-12T02:39:37;13.13;;;11.80;;
43877;SDS011;29815;48.184;11.268;2023-09-12T02:42:07;14.40;;;12.95;;
43877;SDS011;29815;48.184;11.268;2023-09-12T02:44:39;14.00;;;12.52;;
43877;SDS011;29815;48.184;11.268;2023-09-12T02:47:08;12.73;;;11.40;;
43877;SDS011;29815;48.184;11.268;2023-09-12T02:49:38;14.70;;;11.10;;
43877;SDS011;29815;48.184;11.268;2023-09-12T02:52:08;12.15;;;10.68;;
43877;SDS011;29815;48.184;11.268;2023-09-12T02:54:37;12.98;;;11.68;;
43877;SDS011;29815;48.184;11.268;2023-09-12T02:57:07;15.05;;;12.27;;
43877;SDS011;29815;48.184;11.268;2023-09-12T02:59:39;13.38;;;11.98;;
43877;SDS011;29815;48.184;11.268;2023-09-12T03:02:08;14.85;;;12.05;;
43877;SDS011;29815;48.184;11.268;2023-09-12T03:04:38;13.40;;;11.82;;
43877;SDS011;29815;48.184;11.268;2023-09-12T03:07:08;14.57;;;12.68;;
43877;SDS011;29815;48.184;11.268;2023-09-12T03:09:37;14.73;;;11.60;;
43877;SDS011;29815;48.184;11.268;2023-09-12T03:12:07;12.95;;;11.57;;
43877;SDS011;29815;48.184;11.268;2023-09-12T03:14:39;13.23;;;11.82;;
43877;SDS011;29815;48.184;11.268;2023-09-12T03:17:08;13.35;;;11.95;;
43877;SDS011;29815;48.184;11.268;2023-09-12T03:19:38;12.02;;;10.73;;
43877;SDS011;29815;48.184;11.268;2023-09-12T03:22:07;12.98;;;11.65;;
43877;SDS011;29815;48.184;11.268;2023-09-12T03:24:37;13.63;;;11.55;;
43877;SDS011;29815;48.184;11.268;2023-09-12T03:27:07;12.80;;;11.38;;
43877;SDS011;29815;48.184;11.268;2023-09-12T03:29:37;13.40;;;11.15;;
43877;SDS011;29815;48.184;11.268;2023-09-12T03:32:07;13.00;;;11.70;;
43877;SDS011;29815;48.184;11.268;2023-09-12T03:34:37;14.07;;;12.05;;
43877;SDS011;29815;48.184;11.268;2023-09-12T03:37:06;16.25;;;12.50;;
43877;SDS011;29815;48.184;11.268;2023-09-12T03:39:36;13.77;;;11.68;;
43877;SDS011;29815;48.184;11.268;2023-09-12T03:42:06;13.70;;;11.95;;
43877;SDS011;29815;48.184;11.268;2023-09-12T03:44:36;14.82;;;11.95;;
43877;SDS011;29815;48.184;11.268;2023-09-12T03:47:07;12.05;;;10.80;;
43877;SDS011;29815;48.184;11.268;2023-09-12T03:49:37;13.32;;;12.02;;
43877;SDS011;29815;48.184;11.268;2023-09-12T03:52:06;13.25;;;11.75;;
43877;SDS011;29815;48.184;11.268;2023-09-12T03:54:36;13.90;;;12.07;;
43877;SDS011;29815;48.184;11.268;2023-09-12T03:57:06;13.60;;;12.13;;
43877;SDS011;29815;48.184;11.268;2023-09-12T03:59:36;14.02;;;12.05;;
43877;SDS011;29815;48.184;11.268;2023-09-12T04:02:05;14.55;;;11.40;;
43877;SDS011;29815;48.184;11.268;2023-09-12T04:04:37;13.35;;;10.82;;
43877;SDS011;29815;48.184;11.268;2023-09-12T04:07:07;15.05;;;12.75;;
43877;SDS011;29815;48.184;11.268;2023-09-12T04:09:37;14.38;;;12.25;;
43877;SDS011;29815;48.184;11.268;2023-09-12T04:12:07;14.27;;;12.63;;
43877;SDS011;29815;48.184;11.268;2023-09-12T04:14:37;13.02;;;11.70;;
43877;SDS011;29815;48.184;11.268;2023-09-12T04:17:08;14.00;;;11.85;;
43877;SDS011;29815;48.184;11.268;2023-09-12T04:19:37;13.20;;;11.90;;
43877;SDS011;29815;48.184;11.268;2023-09-12T04:22:07;13.02;;;11.68;;
43877;SDS011;29815;48.184;11.268;2023-09-12T04:24:36;14.10;;;11.02;;
43877;SDS011;29815;48.184;11.268;2023-09-12T04:27:06;13.25;;;11.95;;
43877;SDS011;29815;48.184;11.268;2023-09-12T04:29:36;13.13;;;11.80;;
43877;SDS011;29815;48.184;11.268;2023-09-12T04:32:07;13.27;;;11.77;;
43877;SDS011;29815;48.184;11.268;2023-09-12T04:34:37;13.50;;;12.10;;
43877;SDS011;29815;48.184;11.268;2023-09-12T04:37:07;13.85;;;11.27;;
43877;SDS011;29815;48.184;11.268;2023-09-12T04:39:36;13.35;;;11.95;;
43877;SDS011;29815;48.184;11.268;2023-09-12T04:42:06;12.30;;;10.77;;
43877;SDS011;29815;48.184;11.268;2023-09-12T04:44:36;13.55;;;11.98;;
43877;SDS011;29815;48.184;11.268;2023-09-12T04:47:10;13.18;;;11.65;;
43877;SDS011;29815;48.184;11.268;2023-09-12T04:49:41;18.52;;;12.32;;
43877;SDS011;29815;48.184;11.268;2023-09-12T04:52:12;13.45;;;10.82;;
43877;SDS011;29815;48.184;11.268;2023-09-12T04:54:42;12.35;;;10.63;;
43877;SDS011;29815;48.184;11.268;2023-09-12T04:57:12;10.73;;;9.63;;
43877;SDS011;29815;48.184;11.268;2023-09-12T04:59:42;15.40;;;10.43;;
43877;SDS011;29815;48.184;11.268;2023-09-12T05:02:13;12.90;;;11.60;;
43877;SDS011;29815;48.184;11.268;2023-09-12T05:04:43;13.65;;;12.23;;
43877;SDS011;29815;48.184;11.268;2023-09-12T05:07:12;12.98;;;11.68;;
43877;SDS011;29815;48.184;11.268;2023-09-12T05:09:42;13.85;;;12.45;;
43877;SDS011;29815;48.184;11.268;2023-09-12T05:12:12;14.00;;;12.50;;
43877;SDS011;29815;48.184;11.268;2023-09-12T05:14:42;13.98;;;12.32;;
43877;SDS011;29815;48.184;11.268;2023-09-12T05:17:13;13.02;;;11.73;;
43877;SDS011;29815;48.184;11.268;2023-09-12T05:19:43;12.00;;;10.80;;
43877;SDS011;29815;48.184;11.268;2023-09-12T05:22:12;14.02;;;12.60;;
43877;SDS011;29815;48.184;11.268;2023-09-12T05:24:42;13.70;;;12.38;;
43877;SDS011;29815;48.184;11.268;2023-09-12T05:27:13;12.77;;;11.25;;
43877;SDS011;29815;48.184;11.268;2023-09-12T05:29:43;13.20;;;11.90;;
43877;SDS011;29815;48.184;11.268;2023-09-12T05:32:14;14.63;;;13.05;;
43877;SDS011;29815;48.184;11.268;2023-09-12T05:34:44;12.85;;;11.43;;
43877;SDS011;29815;48.184;11.268;2023-09-12T05:37:17;13.10;;;11.73;;
43877;SDS011;29815;48.184;11.268;2023-09-12T05:39:48;14.75;;;13.25;;
43877;SDS011;29815;48.184;11.268;2023-09-12T05:42:18;15.38;;;13.30;;
43877;SDS011;29815;48.184;11.268;2023-09-12T05:44:48;14.25;;;12.75;;
43877;SDS011;29815;48.184;11.268;2023-09-12T05:47:22;16.38;;;13.85;;
43877;SDS011;29815;48.184;11.268;2023-09-12T05:49:52;14.82;;;13.30;;
43877;SDS011;29815;48.184;11.268;2023-09-12T05:52:22;14.50;;;13.10;;
43877;SDS011;29815;48.184;11.268;2023-09-12T05:54:52;15.07;;;13.48;;
43877;SDS011;29815;48.184;11.268;2023-09-12T05:57:22;14.60;;;13.05;;
43877;SDS011;29815;48.184;11.268;2023-09-12T05:59:52;14.85;;;13.35;;
43877;SDS011;29815;48.184;11.268;2023-09-12T06:02:23;14.40;;;13.00;;
43877;SDS011;29815;48.184;11.268;2023-09-12T06:04:53;13.80;;;12.40;;
43877;SDS011;29815;48.184;11.268;2023-09-12T06:07:24;14.85;;;12.25;;
43877;SDS011;29815;48.184;11.268;2023-09-12T06:09:54;15.90;;;12.20;;
43877;SDS011;29815;48.184;11.268;2023-09-12T06:12:23;14.57;;;12.23;;
43877;SDS011;29815;48.184;11.268;2023-09-12T06:14:53;15.52;;;12.50;;
43877;SDS011;29815;48.184;11.268;2023-09-12T06:17:24;14.95;;;12.48;;
43877;SDS011;29815;48.184;11.268;2023-09-12T06:19:54;14.52;;;12.43;;
43877;SDS011;29815;48.184;11.268;2023-09-12T06:22:24;13.68;;;12.27;;
43877;SDS011;29815;48.184;11.268;2023-09-12T06:24:56;14.35;;;12.95;;
43877;SDS011;29815;48.184;11.268;2023-09-12T06:27:28;11.93;;;10.73;;
43877;SDS011;29815;48.184;11.268;2023-09-12T06:29:59;14.30;;;12.77;;
43877;SDS011;29815;48.184;11.268;2023-09-12T06:32:32;12.73;;;11.40;;
43877;SDS011;29815;48.184;11.268;2023-09-12T06:35:02;12.45;;;11.25;;
43877;SDS011;29815;48.184;11.268;2023-09-12T06:37:33;14.23;;;11.38;;
43877;SDS011;29815;48.184;11.268;2023-09-12T06:40:03;13.05;;;11.75;;
43877;SDS011;29815;48.184;11.268;2023-09-12T06:42:34;12.55;;;10.63;;
43877;SDS011;29815;48.184;11.268;2023-09-12T06:45:04;12.57;;;11.38;;
43877;SDS011;29815;48.184;11.268;2023-09-12T06:47:37;13.93;;;11.27;;
43877;SDS011;29815;48.184;11.268;2023-09-12T06:50:07;13.07;;;11.77;;
43877;SDS011;29815;48.184;11.268;2023-09-12T06:52:42;13.65;;;11.57;;
43877;SDS011;29815;48.184;11.268;2023-09-12T06:55:11;12.48;;;11.13;;
43877;SDS011;29815;48.184;11.268;2023-09-12T06:57:41;11.90;;;10.80;;
43877;SDS011;29815;48.184;11.268;2023-09-12T07:00:13;11.38;;;10.02;;
43877;SDS011;29815;48.184;11.268;2023-09-12T07:02:45;12.70;;;10.43;;
43877;SDS011;29815;48.184;11.268;2023-09-12T07:05:15;12.43;;;11.20;;
43877;SDS011;29815;48.184;11.268;2023-09-12T07:07:45;11.65;;;10.55;;
43877;SDS011;29815;48.184;11.268;2023-09-12T07:10:15;13.00;;;10.93;;
43877;SDS011;29815;48.184;11.268;2023-09-12T07:12:52;10.95;;;9.93;;
43877;SDS011;29815;48.184;11.268;2023-09-12T07:15:22;11.75;;;10.57;;
43877;SDS011;29815;48.184;11.268;2023-09-12T07:17:53;12.95;;;10.82;;
43877;SDS011;29815;48.184;11.268;2023-09-12T07:20:24;12.00;;;10.80;;
43877;SDS011;29815;48.184;11.268;2023-09-12T07:22:53;10.85;;;9.77;;
43877;SDS011;29815;48.184;11.268;2023-09-12T07:25:23;11.65;;;10.55;;
43877;SDS011;29815;48.184;11.268;2023-09-12T07:27:53;11.23;;;9.88;;
43877;SDS011;29815;48.184;11.268;2023-09-12T07:30:22;12.77;;;10.52;;
43877;SDS011;29815;48.184;11.268;2023-09-12T07:32:53;12.40;;;10.05;;
43877;SDS011;29815;48.184;11.268;2023-09-12T07:35:23;10.90;;;9.80;;
43877;SDS011;29815;48.184;11.268;2023-09-12T07:37:53;13.18;;;9.88;;
43877;SDS011;29815;48.184;11.268;2023-09-12T07:40:23;9.98;;;8.95;;
43877;SDS011;29815;48.184;11.268;2023-09-12T07:42:54;11.07;;;10.07;;
43877;SDS011;29815;48.184;11.268;2023-09-12T07:45:23;11.77;;;10.55;;
43877;SDS011;29815;48.184;11.268;2023-09-12T07:47:54;13.88;;;10.18;;
43877;SDS011;29815;48.184;11.268;2023-09-12T07:50:24;10.15;;;9.25;;
43877;SDS011;29815;48.184;11.268;2023-09-12T07:52:54;11.88;;;9.73;;
43877;SDS011;29815;48.184;11.268;2023-09-12T07:55:24;11.45;;;10.45;;
43877;SDS011;29815;48.184;11.268;2023-09-12T07:57:57;11.52;;;10.40;;
43877;SDS011;29815;48.184;11.268;2023-09-12T08:00:27;11.10;;;10.00;;
43877;SDS011;29815;48.184;11.268;2023-09-12T08:02:58;10.60;;;9.50;;
43877;SDS011;29815;48.184;11.268;2023-09-12T08:05:27;12.75;;;10.65;;
43877;SDS011;29815;48.184;11.268;2023-09-12T08:07:57;12.35;;;11.02;;
43877;SDS011;29815;48.184;11.268;2023-09-12T08:10:28;12.38;;;11.07;;
43877;SDS011;29815;48.184;11.268;2023-09-12T08:12:57;9.80;;;8.90;;
43877;SDS011;29815;48.184;11.268;2023-09-12T08:15:27;11.13;;;10.10;;
43877;SDS011;29815;48.184;11.268;2023-09-12T08:17:58;11.07;;;10.02;;
43877;SDS011;29815;48.184;11.268;2023-09-12T08:20:28;10.43;;;9.43;;
43877;SDS011;29815;48.184;11.268;2023-09-12T08:22:58;10.05;;;9.05;;
43877;SDS011;29815;48.184;11.268;2023-09-12T08:25:27;10.93;;;9.82;;
43877;SDS011;29815;48.184;11.268;2023-09-12T08:27:57;11.88;;;9.95;;
43877;SDS011;29815;48.184;11.268;2023-09-12T08:30:27;9.57;;;8.57;;
43877;SDS011;29815;48.184;11.268;2023-09-12T08:32:58;11.85;;;10.38;;
43877;SDS011;29815;48.184;11.268;2023-09-12T08:35:30;9.90;;;8.90;;
43877;SDS011;29815;48.184;11.268;2023-09-12T08:38:00;10.02;;;9.02;;
43877;SDS011;29815;48.184;11.268;2023-09-12T08:40:30;9.52;;;8.60;;
43877;SDS011;29815;48.184;11.268;2023-09-12T08:43:03;9.95;;;8.95;;
43877;SDS011;29815;48.184;11.268;2023-09-12T08:45:34;10.05;;;9.05;;
43877;SDS011;29815;48.184;11.268;2023-09-12T08:48:06;9.98;;;8.98;;
43877;SDS011;29815;48.184;11.268;2023-09-12T08:50:36;10.25;;;8.40;;
43877;SDS011;29815;48.184;11.268;2023-09-12T08:53:07;9.30;;;8.40;;
43877;SDS011;29815;48.184;11.268;2023-09-12T08:55:37;11.02;;;10.02;;
43877;SDS011;29815;48.184;11.268;2023-09-12T08:58:08;12.40;;;9.85;;
43877;SDS011;29815;48.184;11.268;2023-09-12T09:00:37;9.90;;;8.55;;
43877;SDS011;29815;48.184;11.268;2023-09-12T09:03:09;10.40;;;9.43;;
43877;SDS011;29815;48.184;11.268;2023-09-12T09:05:40;10.18;;;9.25;;
43877;SDS011;29815;48.184;11.268;2023-09-12T09:08:12;10.73;;;9.73;;
43877;SDS011;29815;48.184;11.268;2023-09-12T09:10:54;10.20;;;9.15;;
43877;SDS011;29815;48.184;11.268;2023-09-12T09:13:25;9.40;;;8.53;;
43877;SDS011;29815;48.184;11.268;2023-09-12T09:16:08;9.30;;;8.20;;
43877;SDS011;29815;48.184;11.268;2023-09-12T09:18:52;9.90;;;8.90;;
43877;SDS011;29815;48.184;11.268;2023-09-12T09:21:25;9.63;;;8.75;;
43877;SDS011;29815;48.184;11.268;2023-09-12T09:23:59;10.02;;;9.02;;
43877;SDS011;29815;48.184;11.268;2023-09-12T09:26:43;11.23;;;9.13;;
43877;SDS011;29815;48.184;11.268;2023-09-12T09:29:16;10.80;;;8.57;;
43877;SDS011;29815;48.184;11.268;2023-09-12T09:31:47;8.80;;;7.97;;
43877;SDS011;29815;48.184;11.268;2023-09-12T09:34:21;9.38;;;8.55;;
43877;SDS011;29815;48.184;11.268;2023-09-12T09:36:52;9.50;;;8.52;;
43877;SDS011;29815;48.184;11.268;2023-09-12T09:39:25;11.60;;;9.43;;
43877;SDS011;29815;48.184;11.268;2023-09-12T09:41:57;9.50;;;8.50;;
43877;SDS011;29815;48.184;11.268;2023-09-12T09:44:27;10.98;;;9.15;;
43877;SDS011;29815;48.184;11.268;2023-09-12T09:46:59;9.23;;;8.32;;
43877;SDS011;29815;48.184;11.268;2023-09-12T09:49:35;10.00;;;7.93;;
43877;SDS011;29815;48.184;11.268;2023-09-12T09:52:05;9.77;;;7.77;;
43877;SDS011;29815;48.184;11.268;2023-09-12T09:54:35;9.40;;;8.57;;
43877;SDS011;29815;48.184;11.268;2023-09-12T09:57:12;9.00;;;8.10;;
43877;SDS011;29815;48.184;11.268;2023-09-12T09:59:42;9.02;;;8.23;;
43877;SDS011;29815;48.184;11.268;2023-09-12T10:02:18;12.75;;;8.30;;
43877;SDS011;29815;48.184;11.268;2023-09-12T10:04:53;9.88;;;8.27;;
43877;SDS011;29815;48.184;11.268;2023-09-12T10:07:27;9.50;;;8.13;;
43877;SDS011;29815;48.184;11.268;2023-09-12T10:10:02;10.43;;;7.65;;
43877;SDS011;29815;48.184;11.268;2023-09-12T10:12:33;9.30;;;8.45;;
43877;SDS011;29815;48.184;11.268;2023-09-12T10:15:08;9.40;;;8.35;;
43877;SDS011;29815;48.184;11.268;2023-09-12T10:17:43;8.48;;;7.70;;
43877;SDS011;29815;48.184;11.268;2023-09-12T10:20:24;8.95;;;7.40;;
43877;SDS011;29815;48.184;11.268;2023-09-12T10:23:05;8.85;;;7.68;;
43877;SDS011;29815;48.184;11.268;2023-09-12T10:25:41;8.50;;;7.70;;
43877;SDS011;29815;48.184;11.268;2023-09-12T10:28:15;9.00;;;8.13;;
43877;SDS011;29815;48.184;11.268;2023-09-12T10:30:46;8.63;;;7.82;;
43877;SDS011;29815;48.184;11.268;2023-09-12T10:33:16;8.80;;;7.25;;
43877;SDS011;29815;48.184;11.268;2023-09-12T10:35:48;11.38;;;7.72;;
43877;SDS011;29815;48.184;11.268;2023-09-12T10:38:19;9.32;;;7.80;;
43877;SDS011;29815;48.184;11.268;2023-09-12T10:40:52;7.72;;;7.03;;
43877;SDS011;29815;48.184;11.268;2023-09-12T10:43:24;7.80;;;7.05;;
43877;SDS011;29815;48.184;11.268;2023-09-12T10:45:55;7.50;;;6.55;;
43877;SDS011;29815;48.184;11.268;2023-09-12T10:48:27;8.45;;;7.65;;
43877;SDS011;29815;48.184;11.268;2023-09-12T10:50:58;9.70;;;7.57;;
43877;SDS011;29815;48.184;11.268;2023-09-12T10:53:31;8.10;;;7.30;;
43877;SDS011;29815;48.184;11.268;2023-09-12T10:56:13;9.10;;;7.38;;
43877;SDS011;29815;48.184;11.268;2023-09-12T11:01:42;7.05;;;5.82;;
43877;SDS011;29815;48.184;11.268;2023-09-12T11:04:33;9.55;;;7.80;;
43877;SDS011;29815;48.184;11.268;2023-09-12T11:10:16;6.95;;;6.13;;
43877;SDS011;29815;48.184;11.268;2023-09-12T11:12:49;7.38;;;6.50;;
43877;SDS011;29815;48.184;11.268;2023-09-12T11:15:22;6.60;;;6.00;;
43877;SDS011;29815;48.184;11.268;2023-09-12T11:18:00;7.35;;;6.65;;
43877;SDS011;29815;48.184;11.268;2023-09-12T11:20:48;8.38;;;6.95;;
43877;SDS011;29815;48.184;11.268;2023-09-12T11:23:23;6.80;;;6.15;;
43877;SDS011;29815;48.184;11.268;2023-09-12T11:26:03;7.88;;;7.05;;
43877;SDS011;29815;48.184;11.268;2023-09-12T11:28:34;9.25;;;7.38;;
43877;SDS011;29815;48.184;11.268;2023-09-12T11:31:04;7.72;;;7.03;;
43877;SDS011;29815;48.184;11.268;2023-09-12T11:33:34;7.47;;;6.72;;
43877;SDS011;29815;48.184;11.268;2023-09-12T11:36:04;7.80;;;7.15;;
43877;SDS011;29815;48.184;11.268;2023-09-12T11:38:42;8.38;;;7.55;;
43877;SDS011;29815;48.184;11.268;2023-09-12T11:41:12;7.82;;;7.13;;
43877;SDS011;29815;48.184;11.268;2023-09-12T11:43:44;6.93;;;6.30;;
43877;SDS011;29815;48.184;11.268;2023-09-12T11:46:16;10.18;;;7.38;;
43877;SDS011;29815;48.184;11.268;2023-09-12T11:48:47;8.73;;;7.20;;
43877;SDS011;29815;48.184;11.268;2023-09-12T11:51:18;7.55;;;6.50;;
43877;SDS011;29815;48.184;11.268;2023-09-12T11:53:50;11.18;;;7.13;;
43877;SDS011;29815;48.184;11.268;2023-09-12T11:56:21;8.75;;;7.35;;
43877;SDS011;29815;48.184;11.268;2023-09-12T12:01:23;11.30;;;6.20;;
43877;SDS011;29815;48.184;11.268;2023-09-12T12:03:53;10.32;;;6.22;;
43877;SDS011;29815;48.184;11.268;2023-09-12T12:06:24;6.68;;;6.07;;
43877;SDS011;29815;48.184;11.268;2023-09-12T12:08:55;10.55;;;6.15;;
43877;SDS011;29815;48.184;11.268;2023-09-12T12:11:27;6.85;;;6.15;;
43877;SDS011;29815;48.184;11.268;2023-09-12T12:13:56;6.97;;;6.38;;
43877;SDS011;29815;48.184;11.268;2023-09-12T12:16:26;6.82;;;6.22;;
43877;SDS011;29815;48.184;11.268;2023-09-12T12:18:56;6.70;;;6.10;;
43877;SDS011;29815;48.184;11.268;2023-09-12T12:21:26;7.82;;;6.68;;
43877;SDS011;29815;48.184;11.268;2023-09-12T12:24:01;8.38;;;6.85;;
43877;SDS011;29815;48.184;11.268;2023-09-12T12:26:32;7.80;;;6.28;;
43877;SDS011;29815;48.184;11.268;2023-09-12T12:29:02;7.68;;;6.03;;
43877;SDS011;29815;48.184;11.268;2023-09-12T12:34:04;7.13;;;6.43;;
43877;SDS011;29815;48.184;11.268;2023-09-12T12:36:54;6.68;;;6.07;;
43877;SDS011;29815;48.184;11.268;2023-09-12T12:39:27;10.52;;;5.97;;
43877;SDS011;29815;48.184;11.268;2023-09-12T12:41:56;6.33;;;5.33;;
43877;SDS011;29815;48.184;11.268;2023-09-12T12:44:32;5.88;;;5.35;;
43877;SDS011;29815;48.184;11.268;2023-09-12T17:37:54;14.10;;;8.70;;
43877;SDS011;29815;48.184;11.268;2023-09-12T17:40:24;11.10;;;9.23;;
43877;SDS011;29815;48.184;11.268;2023-09-12T17:42:53;11.32;;;8.27;;
43877;SDS011;29815;48.184;11.268;2023-09-12T17:45:26;12.10;;;8.65;;
43877;SDS011;29815;48.184;11.268;2023-09-12T17:47:57;11.32;;;9.32;;
43877;SDS011;29815;48.184;11.268;2023-09-12T17:50:28;10.30;;;8.60;;
43877;SDS011;29815;48.184;11.268;2023-09-12T17:52:58;12.70;;;9.18;;
43877;SDS011;29815;48.184;11.268;2023-09-12T17:55:28;11.77;;;8.45;;
43877;SDS011;29815;48.184;11.268;2023-09-12T17:57:58;10.43;;;8.27;;
43877;SDS011;29815;48.184;11.268;2023-09-12T18:00:28;12.52;;;8.48;;
43877;SDS011;29815;48.184;11.268;2023-09-12T18:02:59;9.43;;;8.10;;
43877;SDS011;29815;48.184;11.268;2023-09-12T18:05:30;9.82;;;8.70;;
43877;SDS011;29815;48.184;11.268;2023-09-12T18:08:00;8.95;;;8.07;;
43877;SDS011;29815;48.184;11.268;2023-09-12T18:10:35;13.77;;;10.13;;
43877;SDS011;29815;48.184;11.268;2023-09-12T18:13:05;10.25;;;8.82;;
43877;SDS011;29815;48.184;11.268;2023-09-12T18:15:35;10.95;;;8.18;;
43877;SDS011;29815;48.184;11.268;2023-09-12T18:18:09;13.20;;;9.23;;
43877;SDS011;29815;48.184;11.268;2023-09-12T18:20:41;10.20;;;7.50;;
43877;SDS011;29815;48.184;11.268;2023-09-12T18:23:11;9.40;;;7.97;;
43877;SDS011;29815;48.184;11.268;2023-09-12T18:25:40;9.45;;;8.35;;
43877;SDS011;29815;48.184;11.268;2023-09-12T18:28:10;12.02;;;8.20;;
43877;SDS011;29815;48.184;11.268;2023-09-12T18:30:39;9.40;;;7.90;;
43877;SDS011;29815;48.184;11.268;2023-09-12T18:33:09;10.10;;;8.25;;
43877;SDS011;29815;48.184;11.268;2023-09-12T18:35:39;10.50;;;8.48;;
43877;SDS011;29815;48.184;11.268;2023-09-12T18:38:10;9.35;;;8.48;;
43877;SDS011;29815;48.184;11.268;2023-09-12T18:40:40;13.10;;;11.23;;
43877;SDS011;29815;48.184;11.268;2023-09-12T18:43:09;12.50;;;9.27;;
43877;SDS011;29815;48.184;11.268;2023-09-12T18:45:41;9.40;;;8.38;;
43877;SDS011;29815;48.184;11.268;2023-09-12T18:48:12;11.88;;;9.30;;
43877;SDS011;29815;48.184;11.268;2023-09-12T18:50:43;10.77;;;9.00;;
43877;SDS011;29815;48.184;11.268;2023-09-12T18:53:16;10.75;;;8.43;;
43877;SDS011;29815;48.184;11.268;2023-09-12T18:55:52;12.63;;;8.27;;
43877;SDS011;29815;48.184;11.268;2023-09-12T18:58:23;11.25;;;8.88;;
43877;SDS011;29815;48.184;11.268;2023-09-12T19:01:26;11.47;;;7.90;;
43877;SDS011;29815;48.184;11.268;2023-09-12T19:04:06;12.48;;;8.30;;
43877;SDS011;29815;48.184;11.268;2023-09-12T19:06:53;10.35;;;8.25;;
43877;SDS011;29815;48.184;11.268;2023-09-12T19:09:23;10.27;;;8.55;;
43877;SDS011;29815;48.184;11.268;2023-09-12T19:11:53;10.48;;;8.55;;
43877;SDS011;29815;48.184;11.268;2023-09-12T19:14:24;9.35;;;8.00;;
43877;SDS011;29815;48.184;11.268;2023-09-12T19:16:55;10.93;;;8.10;;
43877;SDS011;29815;48.184;11.268;2023-09-12T19:19:30;9.85;;;8.30;;
43877;SDS011;29815;48.184;11.268;2023-09-12T19:22:12;10.65;;;9.65;;
43877;SDS011;29815;48.184;11.268;2023-09-12T19:24:42;9.50;;;8.48;;
43877;SDS011;29815;48.184;11.268;2023-09-12T19:27:11;9.10;;;7.80;;
43877;SDS011;29815;48.184;11.268;2023-09-12T19:29:48;8.38;;;7.53;;
43877;SDS011;29815;48.184;11.268;2023-09-12T19:32:19;9.25;;;7.90;;
43877;SDS011;29815;48.184;11.268;2023-09-12T19:34:49;9.00;;;7.50;;
43877;SDS011;29815;48.184;11.268;2023-09-12T19:37:20;10.68;;;7.63;;
43877;SDS011;29815;48.184;11.268;2023-09-12T19:39:50;8.40;;;7.70;;
43877;SDS011;29815;48.184;11.268;2023-09-12T19:42:20;9.45;;;7.47;;
43877;SDS011;29815;48.184;11.268;2023-09-12T19:44:50;8.52;;;7.13;;
43877;SDS011;29815;48.184;11.268;2023-09-12T19:47:20;7.82;;;7.00;;
43877;SDS011;29815;48.184;11.268;2023-09-12T19:49:50;8.02;;;7.13;;
43877;SDS011;29815;48.184;11.268;2023-09-12T19:52:22;9.05;;;6.55;;
43877;SDS011;29815;48.184;11.268;2023-09-12T19:54:52;8.80;;;7.97;;
43877;SDS011;29815;48.184;11.268;2023-09-12T19:57:22;8.48;;;7.65;;